createdAt,value
2022-07-29T00:00:17.504Z,1.42
2022-07-29T00:01:20.139Z,1.10
2022-07-29T00:02:22.878Z,1.23
2022-07-29T00:03:25.689Z,1.00
2022-07-29T00:04:28.302Z,1.08
2022-07-29T00:05:30.887Z,1.13
2022-07-29T00:06:33.499Z,1.30
2022-07-29T00:07:36.254Z,1.10
2022-07-29T00:08:38.890Z,1.38
2022-07-29T00:09:41.938Z,1.30
2022-07-29T00:10:53.318Z,1.00
2022-07-29T00:12:00.127Z,1.13
2022-07-29T00:13:03.304Z,1.20
2022-07-29T00:14:06.001Z,1.73
2022-07-29T00:15:09.139Z,1.17
2022-07-29T00:16:11.779Z,1.30
2022-07-29T00:17:14.541Z,1.38
2022-07-29T00:18:21.814Z,1.17
2022-07-29T00:19:24.371Z,1.45
2022-07-29T00:20:28.341Z,1.33
2022-07-29T00:21:30.884Z,1.40
2022-07-29T00:22:33.419Z,1.20
2022-07-29T00:23:39.046Z,1.42
2022-07-29T00:24:41.458Z,1.10
2022-07-29T00:25:44.140Z,1.08
2022-07-29T00:26:46.780Z,1.35
2022-07-29T00:27:49.741Z,1.35
2022-07-29T00:29:06.378Z,1.17
2022-07-29T00:30:16.646Z,1.45
2022-07-29T00:31:19.286Z,1.58
2022-07-29T00:32:22.413Z,1.30
2022-07-29T00:33:25.099Z,1.77
2022-07-29T00:34:46.032Z,1.35
2022-07-29T00:36:51.609Z,1.20
2022-07-29T00:37:54.504Z,1.23
2022-07-29T00:38:57.100Z,1.13
2022-07-29T00:39:59.661Z,1.33
2022-07-29T00:41:02.459Z,1.60
2022-07-29T00:42:05.885Z,1.05
2022-07-29T00:43:08.875Z,1.00
2022-07-29T00:44:11.583Z,2.42
2022-07-29T00:45:15.571Z,1.35
2022-07-29T00:46:18.306Z,1.25
2022-07-29T00:47:20.921Z,1.00
2022-07-29T00:48:23.488Z,1.30
2022-07-29T00:49:26.281Z,1.40
2022-07-29T00:50:29.092Z,1.30
2022-07-29T00:51:31.935Z,1.67
2022-07-29T00:52:39.102Z,1.33
2022-07-29T00:53:42.976Z,1.17
2022-07-29T00:54:45.900Z,1.17
2022-07-29T00:55:48.755Z,1.40
2022-07-29T00:56:51.393Z,1.10
2022-07-29T00:57:54.292Z,1.10
2022-07-29T00:58:58.272Z,1.85
2022-07-29T01:00:01.026Z,1.52
2022-07-29T01:01:03.806Z,1.50
2022-07-29T01:02:06.636Z,1.30
2022-07-29T01:03:09.631Z,1.30
2022-07-29T01:04:12.513Z,1.65
2022-07-29T01:05:22.731Z,1.05
2022-07-29T01:06:26.269Z,2.20
2022-07-29T01:07:30.096Z,1.60
2022-07-29T01:08:34.071Z,1.55
2022-07-29T01:09:46.391Z,1.38
2022-07-29T01:10:50.577Z,1.15
2022-07-29T01:11:54.036Z,1.30
2022-07-29T01:12:58.832Z,1.38
2022-07-29T01:14:02.240Z,1.08
2022-07-29T01:15:07.529Z,1.30
2022-07-29T01:16:25.285Z,1.48
2022-07-29T01:17:53.922Z,1.58
2022-07-29T01:19:07.829Z,1.48
2022-07-29T01:20:24.013Z,1.63
2022-07-29T01:21:46.311Z,1.80
2022-07-29T01:22:57.683Z,1.45
2022-07-29T01:24:21.714Z,1.52
2022-07-29T01:25:59.438Z,1.58
2022-07-29T01:27:20.792Z,1.50
2022-07-29T01:28:47.934Z,1.92
2022-07-29T01:29:55.506Z,1.35
2022-07-29T01:31:02.015Z,1.25
2022-07-29T01:32:28.773Z,1.77
2022-07-29T01:33:50.348Z,1.30
2022-07-29T01:36:01.351Z,1.35
2022-07-29T01:37:29.029Z,1.55
2022-07-29T01:38:31.615Z,1.70
2022-07-29T01:39:36.665Z,1.35
2022-07-29T01:40:46.627Z,1.92
2022-07-29T01:42:03.184Z,1.25
2022-07-29T01:43:11.726Z,1.30
2022-07-29T01:44:23.520Z,1.40
2022-07-29T01:45:41.815Z,1.48
2022-07-29T01:46:57.513Z,1.40
2022-07-29T01:48:04.827Z,1.50
2022-07-29T01:49:15.542Z,1.10
2022-07-29T01:51:25.227Z,1.13
2022-07-29T01:52:57.974Z,1.15
2022-07-29T01:54:18.975Z,1.20
2022-07-29T01:55:24.284Z,1.30
2022-07-29T01:56:30.830Z,1.05
2022-07-29T01:57:35.059Z,1.00
2022-07-29T01:58:40.908Z,1.10
2022-07-29T01:59:45.141Z,1.15
2022-07-29T02:00:49.890Z,0.90
2022-07-29T02:01:55.196Z,1.35
2022-07-29T02:03:00.295Z,1.00
2022-07-29T02:04:07.930Z,1.23
2022-07-29T02:05:12.607Z,1.15
2022-07-29T02:06:18.081Z,0.98
2022-07-29T02:07:23.024Z,1.45
2022-07-29T02:08:26.539Z,1.20
2022-07-29T02:09:30.432Z,1.30
2022-07-29T02:10:34.858Z,1.15
2022-07-29T02:11:39.201Z,1.17
2022-07-29T02:12:44.025Z,1.50
2022-07-29T02:13:58.176Z,0.93
2022-07-29T02:15:03.094Z,1.10
2022-07-29T02:16:08.543Z,1.38
2022-07-29T02:17:12.230Z,0.90
2022-07-29T02:18:19.138Z,1.25
2022-07-29T02:19:23.453Z,0.90
2022-07-29T02:20:27.463Z,1.00
2022-07-29T02:21:31.369Z,1.40
2022-07-29T02:22:36.448Z,1.20
2022-07-29T02:23:45.066Z,1.33
2022-07-29T02:24:54.754Z,1.25
2022-07-29T02:26:00.585Z,1.48
2022-07-29T02:27:03.914Z,1.38
2022-07-29T02:28:07.758Z,1.42
2022-07-29T02:29:11.360Z,0.98
2022-07-29T02:30:14.433Z,1.23
2022-07-29T02:31:19.864Z,1.33
2022-07-29T02:32:23.805Z,1.40
2022-07-29T02:33:27.802Z,1.35
2022-07-29T02:34:30.857Z,1.13
2022-07-29T02:35:34.650Z,1.20
2022-07-29T02:36:38.117Z,0.98
2022-07-29T02:37:41.224Z,1.40
2022-07-29T02:38:53.677Z,1.55
2022-07-29T02:39:56.649Z,1.27
2022-07-29T02:41:12.341Z,1.27
2022-07-29T02:42:17.351Z,1.20
2022-07-29T02:43:20.644Z,1.30
2022-07-29T02:44:27.349Z,1.25
2022-07-29T02:45:33.914Z,1.17
2022-07-29T02:46:38.971Z,1.30
2022-07-29T02:47:44.122Z,1.25
2022-07-29T02:48:57.349Z,1.40
2022-07-29T02:50:12.932Z,1.38
2022-07-29T02:51:43.928Z,1.58
2022-07-29T02:53:20.393Z,0.95
2022-07-29T02:54:32.005Z,1.15
2022-07-29T02:55:58.823Z,1.30
2022-07-29T02:57:05.435Z,1.20
2022-07-29T02:58:29.606Z,1.55
2022-07-29T02:59:35.478Z,1.38
2022-07-29T03:00:39.726Z,1.45
2022-07-29T03:01:47.131Z,1.27
2022-07-29T03:02:53.237Z,1.15
2022-07-29T03:03:56.962Z,1.20
2022-07-29T03:05:00.927Z,1.45
2022-07-29T03:06:04.879Z,1.27
2022-07-29T03:07:07.825Z,1.10
2022-07-29T03:08:12.314Z,1.30
2022-07-29T03:09:15.554Z,1.30
2022-07-29T03:10:18.388Z,1.30
2022-07-29T03:11:22.179Z,1.20
2022-07-29T03:12:45.292Z,1.10
2022-07-29T03:13:48.031Z,1.35
2022-07-29T03:14:50.765Z,1.33
2022-07-29T03:15:54.479Z,1.20
2022-07-29T03:16:57.629Z,1.60
2022-07-29T03:18:01.331Z,1.40
2022-07-29T03:19:04.872Z,1.48
2022-07-29T03:20:08.951Z,1.17
2022-07-29T03:21:11.620Z,1.15
2022-07-29T03:22:15.329Z,1.00
2022-07-29T03:23:23.838Z,1.10
2022-07-29T03:24:32.621Z,1.20
2022-07-29T03:25:35.481Z,1.20
2022-07-29T03:26:38.249Z,1.35
2022-07-29T03:27:41.427Z,1.45
2022-07-29T03:28:44.162Z,1.33
2022-07-29T03:29:49.923Z,1.30
2022-07-29T03:30:53.452Z,1.50
2022-07-29T03:31:57.901Z,1.35
2022-07-29T03:33:01.004Z,1.50
2022-07-29T03:34:04.949Z,1.92
2022-07-29T03:35:08.126Z,1.17
2022-07-29T03:36:10.758Z,0.90
2022-07-29T03:37:13.245Z,1.15
2022-07-29T03:38:15.860Z,1.75
2022-07-29T03:39:38.137Z,1.15
2022-07-29T03:40:48.006Z,1.65
2022-07-29T03:41:54.889Z,1.50
2022-07-29T03:42:58.091Z,1.20
2022-07-29T03:44:01.386Z,1.40
2022-07-29T03:45:07.998Z,1.15
2022-07-29T03:46:11.867Z,1.42
2022-07-29T03:47:16.487Z,1.38
2022-07-29T03:48:22.289Z,1.15
2022-07-29T03:49:26.070Z,1.60
2022-07-29T03:50:30.259Z,1.73
2022-07-29T03:51:33.947Z,1.13
2022-07-29T03:52:37.050Z,1.60
2022-07-29T03:53:39.863Z,1.10
2022-07-29T03:54:42.729Z,1.60
2022-07-29T03:55:48.198Z,1.20
2022-07-29T03:56:53.079Z,1.50
2022-07-29T03:57:58.179Z,1.70
2022-07-29T03:59:03.155Z,1.52
2022-07-29T04:00:06.918Z,1.67
2022-07-29T04:01:09.479Z,1.58
2022-07-29T04:02:28.701Z,1.58
2022-07-29T04:03:33.370Z,1.58
2022-07-29T04:04:37.147Z,1.40
2022-07-29T04:05:39.977Z,1.42
2022-07-29T04:06:44.046Z,1.52
2022-07-29T04:07:48.070Z,1.73
2022-07-29T04:08:50.712Z,1.70
2022-07-29T04:09:53.360Z,1.77
2022-07-29T04:10:56.159Z,1.67
2022-07-29T04:12:03.284Z,2.42
2022-07-29T04:13:06.535Z,1.50
2022-07-29T04:14:09.182Z,1.40
2022-07-29T04:15:12.038Z,1.80
2022-07-29T04:16:14.711Z,1.63
2022-07-29T04:17:17.966Z,1.33
2022-07-29T04:18:20.602Z,1.75
2022-07-29T04:19:23.688Z,1.35
2022-07-29T04:20:26.821Z,1.30
2022-07-29T04:21:29.430Z,0.85
2022-07-29T04:22:31.989Z,1.35
2022-07-29T04:23:34.620Z,1.17
2022-07-29T04:24:37.448Z,1.75
2022-07-29T04:25:41.368Z,1.45
2022-07-29T04:26:44.273Z,1.25
2022-07-29T04:28:02.006Z,1.40
2022-07-29T04:29:04.796Z,1.20
2022-07-29T04:30:07.866Z,1.58
2022-07-29T04:31:11.740Z,0.85
2022-07-29T04:32:14.600Z,1.05
2022-07-29T04:33:18.879Z,1.02
2022-07-29T04:34:21.545Z,0.73
2022-07-29T04:35:24.287Z,0.75
2022-07-29T04:36:29.242Z,1.30
2022-07-29T04:37:32.460Z,0.85
2022-07-29T04:38:35.121Z,0.90
2022-07-29T04:39:37.925Z,0.90
2022-07-29T04:40:40.571Z,0.90
2022-07-29T04:41:44.055Z,1.00
2022-07-29T04:42:47.979Z,0.75
2022-07-29T04:43:52.423Z,0.70
2022-07-29T04:44:55.063Z,0.93
2022-07-29T04:45:58.165Z,0.80
2022-07-29T04:47:01.115Z,0.88
2022-07-29T04:48:04.091Z,0.80
2022-07-29T04:49:06.666Z,0.82
2022-07-29T04:50:10.549Z,0.82
2022-07-29T04:51:13.516Z,0.80
2022-07-29T04:52:16.184Z,0.93
2022-07-29T04:53:18.809Z,0.70
2022-07-29T04:54:21.397Z,0.47
2022-07-29T04:55:24.098Z,0.60
2022-07-29T04:56:27.025Z,0.80
2022-07-29T04:57:29.930Z,0.60
2022-07-29T04:58:32.598Z,0.68
2022-07-29T04:59:35.208Z,0.70
2022-07-29T05:00:37.924Z,0.55
2022-07-29T05:01:40.684Z,0.60
2022-07-29T05:02:43.640Z,0.80
2022-07-29T05:03:46.585Z,0.68
2022-07-29T05:04:49.600Z,0.50
2022-07-29T05:05:52.196Z,0.60
2022-07-29T05:06:54.957Z,0.80
2022-07-29T05:07:57.706Z,0.57
2022-07-29T05:09:00.332Z,0.60
2022-07-29T05:10:03.210Z,0.35
2022-07-29T05:11:12.213Z,0.65
2022-07-29T05:12:16.471Z,0.63
2022-07-29T05:13:19.129Z,0.63
2022-07-29T05:14:21.812Z,0.70
2022-07-29T05:15:24.585Z,0.70
2022-07-29T05:16:27.441Z,0.55
2022-07-29T05:17:30.165Z,0.60
2022-07-29T05:18:35.150Z,0.60
2022-07-29T05:19:39.435Z,0.55
2022-07-29T05:20:42.470Z,0.60
2022-07-29T05:21:46.019Z,0.70
2022-07-29T05:22:49.073Z,0.73
2022-07-29T05:23:52.042Z,0.68
2022-07-29T05:24:54.659Z,0.70
2022-07-29T05:25:57.415Z,0.50
2022-07-29T05:27:00.175Z,0.40
2022-07-29T05:28:02.725Z,0.40
2022-07-29T05:29:05.507Z,0.20
2022-07-29T05:30:08.565Z,0.43
2022-07-29T05:31:11.100Z,0.38
2022-07-29T05:32:14.018Z,0.60
2022-07-29T05:33:35.732Z,0.60
2022-07-29T05:34:50.286Z,0.50
2022-07-29T05:35:58.510Z,0.75
2022-07-29T05:37:03.260Z,0.40
2022-07-29T05:38:06.068Z,0.40
2022-07-29T05:39:10.233Z,0.47
2022-07-29T05:40:12.762Z,0.50
2022-07-29T05:41:15.455Z,0.60
2022-07-29T05:42:18.162Z,0.50
2022-07-29T05:43:21.970Z,0.40
2022-07-29T05:44:25.296Z,0.40
2022-07-29T05:45:28.491Z,0.30
2022-07-29T05:46:31.581Z,0.60
2022-07-29T05:47:34.282Z,0.40
2022-07-29T05:48:37.142Z,0.63
2022-07-29T05:49:39.914Z,0.70
2022-07-29T05:50:44.282Z,0.50
2022-07-29T05:51:50.601Z,0.30
2022-07-29T05:52:53.335Z,0.40
2022-07-29T05:53:56.105Z,1.23
2022-07-29T05:54:58.823Z,0.40
2022-07-29T05:56:05.836Z,0.35
2022-07-29T05:57:08.689Z,0.52
2022-07-29T05:58:11.232Z,0.47
2022-07-29T05:59:18.257Z,0.63
2022-07-29T06:00:21.047Z,0.35
2022-07-29T06:01:24.090Z,0.52
2022-07-29T06:02:26.874Z,0.50
2022-07-29T06:03:29.837Z,0.20
2022-07-29T06:04:33.378Z,0.28
2022-07-29T06:05:36.191Z,0.43
2022-07-29T06:06:38.869Z,0.50
2022-07-29T06:07:41.865Z,0.30
2022-07-29T06:08:53.361Z,0.40
2022-07-29T06:09:56.098Z,0.50
2022-07-29T06:10:58.783Z,0.35
2022-07-29T06:12:01.848Z,0.30
2022-07-29T06:13:04.533Z,0.30
2022-07-29T06:14:07.188Z,0.40
2022-07-29T06:15:10.307Z,0.30
2022-07-29T06:16:13.033Z,0.30
2022-07-29T06:17:18.523Z,0.20
2022-07-29T06:18:21.990Z,0.52
2022-07-29T06:19:24.592Z,0.30
2022-07-29T06:20:28.050Z,0.40
2022-07-29T06:21:30.850Z,0.47
2022-07-29T06:22:33.441Z,0.40
2022-07-29T06:23:36.266Z,0.40
2022-07-29T06:24:42.552Z,0.40
2022-07-29T06:25:45.156Z,0.47
2022-07-29T06:26:47.697Z,0.40
2022-07-29T06:27:50.493Z,0.30
2022-07-29T06:28:52.995Z,0.40
2022-07-29T06:29:56.267Z,0.60
2022-07-29T06:30:59.121Z,0.32
2022-07-29T06:32:01.889Z,0.40
2022-07-29T06:33:04.988Z,0.22
2022-07-29T06:34:07.981Z,0.50
2022-07-29T06:35:38.919Z,0.40
2022-07-29T06:36:37.720Z,0.35
2022-07-29T06:37:40.565Z,0.20
2022-07-29T06:38:49.423Z,0.47
2022-07-29T06:40:14.223Z,0.50
2022-07-29T06:41:17.273Z,0.20
2022-07-29T06:42:19.869Z,0.38
2022-07-29T06:43:23.220Z,0.40
2022-07-29T06:44:29.012Z,0.38
2022-07-29T06:45:34.552Z,0.47
2022-07-29T06:46:37.591Z,0.30
2022-07-29T06:47:40.591Z,0.60
2022-07-29T06:48:43.549Z,0.38
2022-07-29T06:49:46.192Z,0.40
2022-07-29T06:50:49.009Z,0.68
2022-07-29T06:51:52.492Z,0.50
2022-07-29T06:52:55.204Z,0.30
2022-07-29T06:54:02.829Z,0.40
2022-07-29T06:55:06.791Z,0.45
2022-07-29T06:56:09.923Z,0.60
2022-07-29T06:57:12.632Z,0.55
2022-07-29T06:58:17.187Z,0.40
2022-07-29T06:59:35.538Z,0.43
2022-07-29T07:00:39.098Z,0.47
2022-07-29T07:01:43.916Z,0.47
2022-07-29T07:02:46.788Z,0.25
2022-07-29T07:03:50.150Z,0.30
2022-07-29T07:04:53.151Z,0.43
2022-07-29T07:05:56.122Z,0.57
2022-07-29T07:07:00.188Z,0.40
2022-07-29T07:08:02.669Z,0.40
2022-07-29T07:09:05.651Z,0.30
2022-07-29T07:10:08.698Z,0.40
2022-07-29T07:11:11.363Z,0.20
2022-07-29T07:12:13.902Z,0.30
2022-07-29T07:13:18.661Z,0.40
2022-07-29T07:14:21.581Z,0.40
2022-07-29T07:15:39.462Z,0.40
2022-07-29T07:16:42.877Z,0.30
2022-07-29T07:17:45.586Z,0.40
2022-07-29T07:18:48.309Z,0.20
2022-07-29T07:19:50.983Z,0.30
2022-07-29T07:20:53.622Z,0.32
2022-07-29T07:21:56.499Z,0.20
2022-07-29T07:22:59.132Z,0.32
2022-07-29T07:24:01.830Z,0.30
2022-07-29T07:25:04.755Z,0.30
2022-07-29T07:26:07.338Z,0.22
2022-07-29T07:27:11.110Z,0.40
2022-07-29T07:28:13.776Z,0.40
2022-07-29T07:29:16.863Z,0.40
2022-07-29T07:30:19.392Z,0.52
2022-07-29T07:31:22.143Z,0.43
2022-07-29T07:32:24.800Z,0.30
2022-07-29T07:33:27.519Z,0.30
2022-07-29T07:34:31.157Z,0.40
2022-07-29T07:35:33.892Z,0.28
2022-07-29T07:36:36.599Z,0.20
2022-07-29T07:37:41.521Z,0.52
2022-07-29T07:38:44.115Z,0.30
2022-07-29T07:39:47.273Z,0.30
2022-07-29T07:40:49.910Z,0.40
2022-07-29T07:41:52.891Z,0.30
2022-07-29T07:42:55.829Z,0.20
2022-07-29T07:43:58.326Z,0.45
2022-07-29T07:45:16.219Z,0.40
2022-07-29T07:46:19.369Z,0.50
2022-07-29T07:47:22.314Z,0.30
2022-07-29T07:48:24.999Z,0.30
2022-07-29T07:49:27.987Z,0.20
2022-07-29T07:50:30.810Z,0.43
2022-07-29T07:51:33.811Z,0.45
2022-07-29T07:52:53.574Z,0.30
2022-07-29T07:53:56.176Z,0.40
2022-07-29T07:55:00.698Z,0.28
2022-07-29T07:56:12.400Z,0.20
2022-07-29T07:57:16.143Z,0.30
2022-07-29T07:58:18.810Z,0.30
2022-07-29T07:59:21.409Z,0.28
2022-07-29T08:00:24.386Z,0.30
2022-07-29T08:01:27.112Z,0.40
2022-07-29T08:02:30.180Z,0.43
2022-07-29T08:03:33.789Z,0.43
2022-07-29T08:04:36.583Z,0.32
2022-07-29T08:05:39.655Z,0.30
2022-07-29T08:06:42.614Z,0.40
2022-07-29T08:07:46.932Z,0.40
2022-07-29T08:08:49.503Z,0.35
2022-07-29T08:09:52.335Z,0.30
2022-07-29T08:10:56.679Z,0.40
2022-07-29T08:12:00.185Z,0.40
2022-07-29T08:13:05.056Z,0.35
2022-07-29T08:14:07.441Z,0.40
2022-07-29T08:15:10.243Z,0.43
2022-07-29T08:16:13.530Z,0.30
2022-07-29T08:17:16.767Z,0.50
2022-07-29T08:18:19.283Z,0.40
2022-07-29T08:19:21.850Z,0.30
2022-07-29T08:20:24.645Z,0.40
2022-07-29T08:21:27.420Z,0.73
2022-07-29T08:22:30.377Z,0.77
2022-07-29T08:23:50.537Z,0.40
2022-07-29T08:24:57.251Z,0.30
2022-07-29T08:25:59.978Z,0.20
2022-07-29T08:27:02.664Z,0.20
2022-07-29T08:28:05.679Z,0.30
2022-07-29T08:29:08.347Z,0.25
2022-07-29T08:30:11.484Z,0.43
2022-07-29T08:31:14.782Z,0.30
2022-07-29T08:32:36.973Z,0.40
2022-07-29T08:33:40.563Z,0.35
2022-07-29T08:34:45.214Z,0.30
2022-07-29T08:35:48.126Z,0.40
2022-07-29T08:36:50.869Z,0.47
2022-07-29T08:37:54.701Z,0.40
2022-07-29T08:38:57.395Z,0.40
2022-07-29T08:40:00.311Z,0.40
2022-07-29T08:41:03.230Z,0.30
2022-07-29T08:42:06.950Z,0.40
2022-07-29T08:43:10.190Z,0.50
2022-07-29T08:44:12.868Z,0.50
2022-07-29T08:45:15.465Z,0.35
2022-07-29T08:46:18.677Z,0.30
2022-07-29T08:47:21.522Z,0.38
2022-07-29T08:48:24.815Z,0.43
2022-07-29T08:49:27.623Z,0.50
2022-07-29T08:50:30.261Z,0.40
2022-07-29T08:51:34.761Z,0.45
2022-07-29T08:52:50.449Z,0.38
2022-07-29T08:53:53.213Z,0.50
2022-07-29T08:54:56.333Z,0.47
2022-07-29T08:55:59.189Z,0.50
2022-07-29T08:57:02.171Z,0.70
2022-07-29T08:58:06.304Z,0.70
2022-07-29T08:59:10.963Z,0.40
2022-07-29T09:00:15.712Z,0.32
2022-07-29T09:01:36.033Z,0.40
2022-07-29T09:02:46.743Z,0.43
2022-07-29T09:03:50.667Z,0.35
2022-07-29T09:04:53.352Z,0.47
2022-07-29T09:05:56.249Z,0.45
2022-07-29T09:07:02.245Z,0.52
2022-07-29T09:08:05.947Z,0.38
2022-07-29T09:09:09.080Z,0.50
2022-07-29T09:10:12.092Z,0.52
2022-07-29T09:11:15.171Z,0.40
2022-07-29T09:12:29.450Z,0.40
2022-07-29T09:13:33.319Z,0.50
2022-07-29T09:14:35.972Z,0.40
2022-07-29T09:15:38.671Z,0.50
2022-07-29T09:16:57.971Z,0.70
2022-07-29T09:19:23.881Z,0.32
2022-07-29T09:20:26.924Z,0.25
2022-07-29T09:22:00.541Z,0.28
2022-07-29T09:23:09.301Z,0.63
2022-07-29T09:24:13.788Z,0.70
2022-07-29T09:25:34.987Z,0.50
2022-07-29T09:26:42.798Z,0.50
2022-07-29T09:27:51.171Z,0.50
2022-07-29T09:28:53.798Z,0.70
2022-07-29T09:30:25.466Z,0.70
2022-07-29T09:31:36.625Z,0.50
2022-07-29T09:33:02.462Z,0.32
2022-07-29T09:34:06.442Z,0.30
2022-07-29T09:35:20.049Z,0.50
2022-07-29T09:36:22.971Z,0.57
2022-07-29T09:37:29.570Z,0.73
2022-07-29T09:38:33.695Z,0.52
2022-07-29T09:39:38.260Z,0.77
2022-07-29T09:40:41.718Z,0.70
2022-07-29T09:41:53.988Z,0.40
2022-07-29T09:42:58.402Z,0.43
2022-07-29T09:44:01.121Z,0.50
2022-07-29T09:45:04.376Z,0.55
2022-07-29T09:46:13.460Z,0.60
2022-07-29T09:47:17.989Z,0.50
2022-07-29T09:48:22.091Z,0.50
2022-07-29T09:49:25.273Z,0.40
2022-07-29T09:50:38.111Z,0.50
2022-07-29T09:51:41.382Z,0.30
2022-07-29T09:52:48.847Z,0.50
2022-07-29T09:53:51.665Z,0.50
2022-07-29T09:55:09.836Z,0.22
2022-07-29T09:56:16.463Z,0.73
2022-07-29T09:57:31.208Z,0.30
2022-07-29T09:58:34.994Z,0.40
2022-07-29T09:59:37.814Z,0.30
2022-07-29T10:00:54.477Z,0.38
2022-07-29T10:01:58.043Z,0.40
2022-07-29T10:03:02.611Z,0.40
2022-07-29T10:04:05.463Z,0.52
2022-07-29T10:05:24.861Z,0.25
2022-07-29T10:06:27.453Z,0.50
2022-07-29T10:07:53.472Z,0.40
2022-07-29T10:09:07.502Z,0.60
2022-07-29T10:10:10.207Z,0.50
2022-07-29T10:11:20.207Z,0.30
2022-07-29T10:12:23.783Z,0.40
2022-07-29T10:13:27.077Z,0.50
2022-07-29T10:14:31.785Z,0.30
2022-07-29T10:15:41.852Z,0.20
2022-07-29T10:17:47.159Z,0.40
2022-07-29T10:18:49.969Z,0.40
2022-07-29T10:19:53.592Z,0.22
2022-07-29T10:20:56.457Z,0.50
2022-07-29T10:22:00.662Z,0.60
2022-07-29T10:23:03.819Z,0.50
2022-07-29T10:24:07.411Z,0.50
2022-07-29T10:25:18.973Z,0.60
2022-07-29T10:26:21.711Z,0.60
2022-07-29T10:27:24.321Z,0.40
2022-07-29T10:28:27.171Z,0.50
2022-07-29T10:29:32.382Z,0.77
2022-07-29T10:30:35.329Z,0.50
2022-07-29T10:31:45.414Z,0.38
2022-07-29T10:33:59.305Z,0.70
2022-07-29T10:35:22.884Z,0.60
2022-07-29T10:36:38.918Z,0.45
2022-07-29T10:38:19.168Z,0.47
2022-07-29T10:39:48.976Z,0.60
2022-07-29T10:41:32.487Z,0.38
2022-07-29T10:42:46.684Z,0.40
2022-07-29T10:43:54.903Z,0.40
2022-07-29T10:44:57.933Z,0.77
2022-07-29T10:46:02.526Z,0.50
2022-07-29T10:47:05.683Z,0.45
2022-07-29T10:48:08.237Z,0.30
2022-07-29T10:49:16.585Z,0.28
2022-07-29T10:50:20.750Z,0.38
2022-07-29T10:51:23.990Z,0.40
2022-07-29T10:52:50.515Z,0.50
2022-07-29T10:53:54.233Z,0.43
2022-07-29T10:54:59.742Z,0.52
2022-07-29T10:56:06.356Z,0.68
2022-07-29T10:57:25.620Z,0.50
2022-07-29T10:58:49.968Z,0.50
2022-07-29T11:00:27.913Z,0.50
2022-07-29T11:01:37.156Z,0.40
2022-07-29T11:02:42.718Z,0.38
2022-07-29T11:03:50.440Z,0.30
2022-07-29T11:04:53.517Z,0.43
2022-07-29T11:05:59.619Z,0.30
2022-07-29T11:07:09.133Z,0.50
2022-07-29T11:08:19.736Z,0.30
2022-07-29T11:09:25.716Z,0.60
2022-07-29T11:10:37.925Z,0.52
2022-07-29T11:11:44.015Z,0.28
2022-07-29T11:12:53.925Z,0.45
2022-07-29T11:13:57.156Z,0.28
2022-07-29T11:15:01.461Z,0.65
2022-07-29T11:16:06.364Z,0.40
2022-07-29T11:17:11.005Z,0.40
2022-07-29T11:18:17.559Z,0.40
2022-07-29T11:19:26.631Z,0.40
2022-07-29T11:20:50.065Z,0.43
2022-07-29T11:23:20.640Z,0.30
2022-07-29T11:24:29.273Z,0.40
2022-07-29T11:25:42.927Z,0.50
2022-07-29T11:27:23.408Z,0.50
2022-07-29T11:28:31.381Z,0.50
2022-07-29T11:29:34.077Z,0.30
2022-07-29T11:30:51.069Z,0.60
2022-07-29T11:31:56.991Z,0.30
2022-07-29T11:32:59.797Z,0.40
2022-07-29T11:34:31.872Z,0.50
2022-07-29T11:35:38.236Z,0.43
2022-07-29T11:37:14.536Z,0.30
2022-07-29T11:38:32.130Z,0.30
2022-07-29T11:39:37.646Z,0.40
2022-07-29T11:40:40.345Z,0.52
2022-07-29T11:41:45.359Z,0.30
2022-07-29T11:42:50.195Z,0.50
2022-07-29T11:43:59.294Z,0.20
2022-07-29T11:45:41.441Z,0.35
2022-07-29T11:46:50.949Z,0.47
2022-07-29T11:48:05.293Z,0.57
2022-07-29T11:49:32.581Z,0.40
2022-07-29T11:50:44.254Z,0.40
2022-07-29T11:51:52.867Z,0.30
2022-07-29T11:52:55.773Z,0.60
2022-07-29T11:54:04.270Z,0.55
2022-07-29T11:55:09.568Z,0.40
2022-07-29T11:56:16.429Z,0.50
2022-07-29T11:57:20.805Z,0.60
2022-07-29T11:58:24.965Z,0.30
2022-07-29T12:00:50.982Z,0.40
2022-07-29T12:03:35.093Z,0.30
2022-07-29T12:04:51.334Z,0.95
2022-07-29T12:05:57.491Z,0.40
2022-07-29T12:07:00.466Z,0.50
2022-07-29T12:07:03.511Z,0.63
2022-07-29T12:08:20.943Z,0.45
2022-07-29T12:09:25.026Z,0.57
2022-07-29T12:10:31.929Z,0.40
2022-07-29T12:11:36.110Z,0.40
2022-07-29T12:12:39.782Z,0.40
2022-07-29T12:13:42.300Z,0.50
2022-07-29T12:14:47.542Z,0.40
2022-07-29T12:16:00.009Z,0.40
2022-07-29T12:17:03.171Z,0.30
2022-07-29T12:18:19.562Z,0.40
2022-07-29T12:19:27.660Z,0.50
2022-07-29T12:20:31.152Z,0.52
2022-07-29T12:21:56.967Z,0.60
2022-07-29T12:23:07.165Z,0.28
2022-07-29T12:24:09.857Z,0.65
2022-07-29T12:25:32.876Z,0.32
2022-07-29T12:26:36.445Z,0.63
2022-07-29T12:27:40.305Z,0.47
2022-07-29T12:28:43.388Z,0.57
2022-07-29T12:30:03.618Z,0.60
2022-07-29T12:31:08.161Z,0.45
2022-07-29T12:32:14.513Z,1.00
2022-07-29T12:33:22.797Z,0.25
2022-07-29T12:34:28.681Z,0.57
2022-07-29T12:35:31.520Z,0.65
2022-07-29T12:36:34.307Z,0.50
2022-07-29T12:37:42.538Z,0.63
2022-07-29T12:38:45.841Z,0.60
2022-07-29T12:39:48.599Z,0.40
2022-07-29T12:40:53.211Z,0.40
2022-07-29T12:42:04.118Z,0.30
2022-07-29T12:43:18.073Z,0.50
2022-07-29T12:44:20.752Z,0.40
2022-07-29T12:45:30.597Z,0.50
2022-07-29T12:46:33.294Z,0.43
2022-07-29T12:47:52.497Z,0.50
2022-07-29T12:48:57.541Z,0.60
2022-07-29T12:50:22.062Z,0.30
2022-07-29T12:51:34.893Z,0.30
2022-07-29T12:52:37.637Z,0.70
2022-07-29T12:53:40.677Z,0.40
2022-07-29T12:54:48.579Z,0.40
2022-07-29T12:55:52.796Z,0.40
2022-07-29T12:57:05.261Z,0.60
2022-07-29T12:58:08.179Z,0.80
2022-07-29T12:59:15.814Z,0.60
2022-07-29T13:00:24.236Z,0.73
2022-07-29T13:01:28.317Z,0.95
2022-07-29T13:02:31.203Z,0.52
2022-07-29T13:04:01.511Z,0.57
2022-07-29T13:05:05.183Z,0.52
2022-07-29T13:06:07.931Z,0.40
2022-07-29T13:07:12.837Z,0.43
2022-07-29T13:08:22.322Z,0.40
2022-07-29T13:09:49.616Z,0.32
2022-07-29T13:10:52.486Z,0.30
2022-07-29T13:11:55.164Z,0.52
2022-07-29T13:13:15.451Z,0.35
2022-07-29T13:14:38.905Z,0.68
2022-07-29T13:15:43.721Z,0.40
2022-07-29T13:17:06.670Z,0.30
2022-07-29T13:18:28.221Z,0.40
2022-07-29T13:19:35.429Z,0.40
2022-07-29T13:20:37.961Z,0.35
2022-07-29T13:21:40.958Z,0.40
2022-07-29T13:22:43.727Z,0.60
2022-07-29T13:23:46.359Z,0.85
2022-07-29T13:24:57.438Z,0.40
2022-07-29T13:26:10.045Z,0.50
2022-07-29T13:27:12.699Z,0.60
2022-07-29T13:28:15.579Z,0.40
2022-07-29T13:29:18.384Z,0.40
2022-07-29T13:30:21.230Z,0.55
2022-07-29T13:31:23.883Z,0.60
2022-07-29T13:32:29.003Z,0.47
2022-07-29T13:33:31.887Z,0.40
2022-07-29T13:34:34.621Z,0.40
2022-07-29T13:35:39.935Z,0.57
2022-07-29T13:36:42.888Z,0.47
2022-07-29T13:37:45.601Z,0.32
2022-07-29T13:38:48.352Z,0.40
2022-07-29T13:39:53.256Z,0.40
2022-07-29T13:40:56.143Z,0.82
2022-07-29T13:41:59.053Z,0.60
2022-07-29T13:43:02.981Z,0.45
2022-07-29T13:44:06.472Z,0.40
2022-07-29T13:45:10.337Z,0.47
2022-07-29T13:46:13.119Z,0.50
2022-07-29T13:47:17.169Z,0.40
2022-07-29T13:48:19.878Z,0.30
2022-07-29T13:49:22.740Z,0.60
2022-07-29T13:50:25.497Z,0.40
2022-07-29T13:51:28.013Z,0.50
2022-07-29T13:52:30.592Z,0.28
2022-07-29T13:53:33.759Z,0.40
2022-07-29T13:54:42.091Z,0.38
2022-07-29T13:55:45.363Z,0.40
2022-07-29T13:56:48.064Z,0.30
2022-07-29T13:57:50.678Z,0.70
2022-07-29T13:58:53.156Z,0.40
2022-07-29T13:59:55.924Z,0.50
2022-07-29T14:00:58.513Z,0.30
2022-07-29T14:02:01.382Z,0.52
2022-07-29T14:03:04.337Z,0.45
2022-07-29T14:04:06.997Z,0.40
2022-07-29T14:05:11.148Z,0.50
2022-07-29T14:06:14.493Z,0.40
2022-07-29T14:07:17.671Z,0.50
2022-07-29T14:08:20.365Z,0.40
2022-07-29T14:09:22.964Z,0.30
2022-07-29T14:10:25.615Z,0.45
2022-07-29T14:11:28.196Z,0.75
2022-07-29T14:12:30.719Z,0.47
2022-07-29T14:13:33.356Z,0.40
2022-07-29T14:14:37.633Z,0.52
2022-07-29T14:15:40.560Z,0.43
2022-07-29T14:16:47.756Z,0.40
2022-07-29T14:17:54.590Z,0.45
2022-07-29T14:18:57.227Z,0.55
2022-07-29T14:19:59.902Z,0.47
2022-07-29T14:21:02.757Z,0.43
2022-07-29T14:22:06.681Z,0.40
2022-07-29T14:23:09.962Z,0.52
2022-07-29T14:24:17.727Z,0.40
2022-07-29T14:25:20.732Z,0.40
2022-07-29T14:26:26.305Z,0.30
2022-07-29T14:27:37.238Z,0.52
2022-07-29T14:28:42.067Z,0.50
2022-07-29T14:29:44.767Z,0.50
2022-07-29T14:30:47.616Z,0.40
2022-07-29T14:31:50.392Z,0.38
2022-07-29T14:32:53.096Z,0.45
2022-07-29T14:33:58.828Z,0.40
2022-07-29T14:35:04.181Z,0.60
2022-07-29T14:36:06.766Z,0.55
2022-07-29T14:37:15.896Z,0.28
2022-07-29T14:38:19.152Z,0.60
2022-07-29T14:39:22.030Z,0.52
2022-07-29T14:40:24.739Z,0.32
2022-07-29T14:41:29.338Z,0.50
2022-07-29T14:42:34.899Z,0.60
2022-07-29T14:43:37.509Z,0.50
2022-07-29T14:44:42.543Z,0.50
2022-07-29T14:45:45.496Z,0.55
2022-07-29T14:46:48.060Z,0.30
2022-07-29T14:47:56.352Z,0.40
2022-07-29T14:49:00.282Z,0.40
2022-07-29T14:50:03.271Z,0.70
2022-07-29T14:51:06.345Z,0.47
2022-07-29T14:52:09.060Z,0.30